Aviation Digital Data Service (ADDS)

Output produced by METARs form (2049 UTC 23 January 2019)
found at http://www.aviationweather.gov/metar/data/
 
Forecast for: PKWA (KWAJALEIN/BUCHOL, MH, US)
Text: PKWA 231824Z 2318/2418 06015KT P6SM FEW020 SCT050
Forecast period: 1800 UTC 23 January 2019 to 1800 UTC 24 January 2019
Forecast type: FROM: standard forecast or significant change
Winds: from the ENE (60 degrees) at 17 MPH (15 knots; 7.7 m/s)
Visibility: 6 or more miles 10+ km)
Ceiling: at least 12,000 feet AGL
Clouds: few clouds at 2000 feet AGL
scattered clouds at 5000 feet AGL
Weather: no significant weather forecast for this period